Home   Weather   India   Malappuram   Past weeks
Flag for India

Past Weather in Malappuram, Kerala, India — Yesterday and Last 2 Weeks

Currently: 81 °F. Broken clouds. (Weather station: Kondotti, India). See more current weather

Past Weather in Malappuram — Graph

°F

Malappuram Temperature Yesterday

Maximum temperature yesterday: 84 °F (at 12:30 pm)
Minimum temperature yesterday: 75 °F (at 12:00 am)
Average temperature yesterday: 79 °F

High & Low Weather Summary for the Past Weeks

 TemperatureHumidityPressure
High84 °F (Jul 28, 1:30 pm)100% (Jul 18, 11:00 pm)29.92 "Hg (Jul 18, 11:00 pm)
Low72 °F (Jul 18, 5:30 am)66% (Jul 28, 1:30 pm)29.39 "Hg (Jul 23, 4:30 pm)
Average77 °F87%29.80 "Hg
* Reported Jul 15 1:30 pm — Jul 30 1:30 pm, Malappuram. Weather by CustomWeather, © 2021

Note: Actual official high and low records may vary slightly from our data, if they occured in-between our weather recording intervals... More about our weather records

Malappuram Weather History for the Previous 24 Hours

Scroll right to see more
 ConditionsComfort  
Time TempWeatherWind HumidityBarometerVisibility
1:30 pm
Fri, Jul 30
82 °FBroken clouds.15 mph70%29.86 "Hg4 mi
1:00 pm82 °FScattered clouds.16 mph70%29.86 "Hg4 mi
12:30 pm82 °FScattered clouds.14 mph66%29.89 "Hg4 mi
12:00 pm82 °FScattered clouds.6 mph70%29.89 "Hg4 mi
11:30 am81 °FScattered clouds.10 mph74%29.89 "Hg4 mi
11:00 am81 °FScattered clouds.13 mph74%29.89 "Hg4 mi
10:30 am81 °FScattered clouds.10 mph74%29.89 "Hg4 mi
10:00 am81 °FScattered clouds.12 mph70%29.89 "Hg4 mi
9:30 am79 °FScattered clouds.6 mph79%29.92 "Hg4 mi
9:00 am79 °FPassing clouds.3 mph79%29.92 "Hg4 mi
8:30 am79 °FPassing clouds.3 mph79%29.89 "Hg4 mi
8:00 am75 °FFog.3 mph83%29.89 "Hg3 mi
7:30 am73 °FFog.2 mph89%29.89 "Hg3 mi
7:00 am73 °FFog.3 mph83%29.86 "Hg3 mi
6:30 am72 °FFog.3 mph88%29.86 "Hg3 mi
6:00 am72 °FFog.5 mph88%29.86 "Hg3 mi
5:30 am72 °FFog.3 mph88%29.86 "Hg3 mi
5:00 am73 °FRain. Mostly cloudy.10 mph89%29.83 "Hg2 mi
4:30 am75 °FFog.No wind89%29.83 "Hg3 mi
4:00 am75 °FFog.No wind89%29.83 "Hg3 mi
3:30 am75 °FFog.2 mph89%29.83 "Hg3 mi
3:00 am75 °FFog.No wind89%29.83 "Hg3 mi
2:30 am75 °FFog.No wind89%29.83 "Hg3 mi
2:00 am75 °FFog.2 mph94%29.86 "Hg3 mi
1:30 am77 °FFog.2 mph89%29.86 "Hg3 mi
1:00 am77 °FFog.2 mph89%29.86 "Hg3 mi
12:30 am77 °FFog.2 mph89%29.86 "Hg3 mi
12:00 am77 °FFog.2 mph89%29.86 "Hg3 mi
11:30 pm
Thu, Jul 29
77 °FFog.2 mph89%29.89 "Hg3 mi
11:00 pm77 °FFog.2 mph89%29.89 "Hg3 mi
10:30 pm77 °FFog.3 mph89%29.89 "Hg3 mi
10:00 pm77 °FFog.2 mph89%29.89 "Hg3 mi
9:30 pm77 °FFog.2 mph89%29.89 "Hg3 mi
9:00 pm77 °FFog.5 mph89%29.89 "Hg3 mi
8:30 pm77 °FFog.2 mph89%29.86 "Hg3 mi
8:00 pm79 °FFog.5 mph79%29.86 "Hg3 mi
7:30 pm79 °FFog.5 mph79%29.83 "Hg3 mi
7:00 pm79 °FPassing clouds.6 mph79%29.83 "Hg4 mi
6:30 pm81 °FPassing clouds.7 mph74%29.83 "Hg4 mi
6:00 pm81 °FBroken clouds.9 mph74%29.80 "Hg4 mi
5:30 pm81 °FBroken clouds.6 mph74%29.80 "Hg4 mi
5:00 pm81 °FBroken clouds.9 mph74%29.80 "Hg4 mi
Weather by CustomWeather, © 2021

See weather overview